createdAt,value
2019-05-05T00:01:25.082Z,71.00
2019-05-05T00:04:01.898Z,70.50
2019-05-05T00:06:34.707Z,70.00
2019-05-05T00:09:05.511Z,69.30
2019-05-05T00:11:44.469Z,69.20
2019-05-05T00:14:16.755Z,68.50
2019-05-05T00:16:50.782Z,68.40
2019-05-05T00:19:30.715Z,68.80
2019-05-05T00:21:51.317Z,68.80
2019-05-05T00:24:20.778Z,69.40
2019-05-05T00:26:50.214Z,69.70
2019-05-05T00:29:20.857Z,69.90
2019-05-05T00:31:50.335Z,69.90
2019-05-05T00:34:19.840Z,70.30
2019-05-05T00:36:49.275Z,71.00
2019-05-05T00:39:18.982Z,71.30
2019-05-05T00:41:48.418Z,71.90
2019-05-05T00:44:17.928Z,73.40
2019-05-05T00:47:17.665Z,72.90
2019-05-05T00:49:49.471Z,73.40
2019-05-05T00:52:19.158Z,73.60
2019-05-05T00:54:48.689Z,73.60
2019-05-05T00:57:18.130Z,73.60
2019-05-05T00:59:47.566Z,75.00
2019-05-05T01:02:27.593Z,74.10
2019-05-05T01:05:01.304Z,74.50
2019-05-05T01:07:30.623Z,75.00
2019-05-05T01:10:00.245Z,75.80
2019-05-05T01:12:29.766Z,76.00
2019-05-05T01:14:59.226Z,76.30
2019-05-05T01:17:28.685Z,76.40
2019-05-05T01:20:03.308Z,76.60
2019-05-05T01:22:29.298Z,76.70
2019-05-05T01:24:58.732Z,76.70
2019-05-05T01:27:28.244Z,77.30
2019-05-05T01:29:57.774Z,77.20
2019-05-05T01:32:31.678Z,77.60
2019-05-05T01:35:00.381Z,77.80
2019-05-05T01:37:34.893Z,78.00
2019-05-05T01:40:09.523Z,78.70
2019-05-05T01:42:39.057Z,79.10
2019-05-05T01:45:09.008Z,79.30
2019-05-05T01:47:38.536Z,79.50
2019-05-05T01:50:17.724Z,79.70
2019-05-05T01:52:39.250Z,80.00
2019-05-05T01:55:09.337Z,80.40
2019-05-05T01:57:38.930Z,80.50
2019-05-05T02:00:08.545Z,80.60
2019-05-05T02:02:38.066Z,80.90
2019-05-05T02:05:07.751Z,80.70
2019-05-05T02:07:37.266Z,80.80
2019-05-05T02:10:07.536Z,80.90
2019-05-05T02:12:37.046Z,80.90
2019-05-05T02:15:07.945Z,81.30
2019-05-05T02:17:37.482Z,81.30
2019-05-05T02:20:07.155Z,81.40
2019-05-05T02:22:36.821Z,81.10
2019-05-05T02:25:07.426Z,81.50
2019-05-05T02:27:36.921Z,81.40
2019-05-05T02:30:11.672Z,81.30
2019-05-05T02:32:45.203Z,81.30
2019-05-05T02:35:16.534Z,81.30
2019-05-05T02:38:07.061Z,81.10
2019-05-05T02:40:36.949Z,80.70
2019-05-05T02:43:07.532Z,80.30
2019-05-05T02:45:50.707Z,79.90
2019-05-05T02:48:21.397Z,79.60
2019-05-05T02:51:00.125Z,80.00
2019-05-05T02:53:28.727Z,80.00
2019-05-05T02:56:04.239Z,80.30
2019-05-05T02:58:36.507Z,80.50
2019-05-05T03:01:08.160Z,80.50
2019-05-05T03:03:39.406Z,81.30
2019-05-05T03:06:08.910Z,81.50
2019-05-05T03:08:41.437Z,81.50
2019-05-05T03:11:14.461Z,81.60
2019-05-05T03:13:47.323Z,81.90
2019-05-05T03:16:23.760Z,82.20
2019-05-05T03:18:54.475Z,82.50
2019-05-05T03:21:25.140Z,82.50
2019-05-05T03:23:54.931Z,82.60
2019-05-05T03:26:24.428Z,83.10
2019-05-05T03:28:55.598Z,83.20
2019-05-05T03:31:26.488Z,83.20
2019-05-05T03:33:56.348Z,83.50
2019-05-05T03:36:27.228Z,83.70
2019-05-05T03:38:56.834Z,83.90
2019-05-05T03:41:31.956Z,84.20
2019-05-05T03:44:05.912Z,84.20
2019-05-05T03:46:36.574Z,84.30
2019-05-05T03:49:06.558Z,84.30
2019-05-05T03:51:37.331Z,84.50
2019-05-05T03:54:07.244Z,84.30
2019-05-05T03:56:36.745Z,83.70
2019-05-05T03:59:14.169Z,84.00
2019-05-05T04:01:48.146Z,83.70
2019-05-05T04:04:21.206Z,83.50
2019-05-05T04:06:54.007Z,83.90
2019-05-05T04:09:24.431Z,84.20
2019-05-05T04:11:54.968Z,84.20
2019-05-05T04:14:25.173Z,84.30
2019-05-05T04:17:06.150Z,84.50
2019-05-05T04:19:37.387Z,84.30
2019-05-05T04:22:06.834Z,83.90
2019-05-05T04:24:36.270Z,83.60
2019-05-05T04:27:05.787Z,83.40
2019-05-05T04:29:35.243Z,83.00
2019-05-05T04:32:04.813Z,82.60
2019-05-05T04:34:34.859Z,82.00
2019-05-05T04:37:08.440Z,81.70
2019-05-05T04:39:37.943Z,81.10
2019-05-05T04:42:07.456Z,80.60
2019-05-05T04:44:37.015Z,80.70
2019-05-05T04:47:11.176Z,80.30
2019-05-05T04:49:44.398Z,80.70
2019-05-05T04:52:27.290Z,80.50
2019-05-05T04:54:56.736Z,79.80
2019-05-05T04:57:26.197Z,79.30
2019-05-05T04:59:55.652Z,78.80
2019-05-05T05:02:36.174Z,78.30
2019-05-05T05:05:08.602Z,78.20
2019-05-05T05:07:38.080Z,78.30
2019-05-05T05:10:07.663Z,78.80
2019-05-05T05:12:37.269Z,78.90
2019-05-05T05:15:07.068Z,78.50
2019-05-05T05:17:40.936Z,78.40
2019-05-05T05:20:10.751Z,78.30
2019-05-05T05:22:40.199Z,77.60
2019-05-05T05:25:09.781Z,78.10
2019-05-05T05:27:39.230Z,76.90
2019-05-05T05:30:08.803Z,76.70
2019-05-05T05:32:39.898Z,76.50
2019-05-05T05:35:28.788Z,76.50
2019-05-05T05:37:58.423Z,75.40
2019-05-05T05:40:34.095Z,75.40
2019-05-05T05:43:05.088Z,74.80
2019-05-05T05:45:36.227Z,75.00
2019-05-05T05:48:07.322Z,75.40
2019-05-05T05:50:50.680Z,75.60
2019-05-05T05:53:20.163Z,75.40
2019-05-05T05:55:49.582Z,75.50
2019-05-05T05:58:19.038Z,74.80
2019-05-05T06:00:48.495Z,75.10
2019-05-05T06:03:17.943Z,74.10
2019-05-05T06:05:48.485Z,73.60
2019-05-05T06:10:55.453Z,73.10
2019-05-05T06:13:24.891Z,71.40
2019-05-05T06:15:54.325Z,71.30
2019-05-05T06:18:24.293Z,70.90
2019-05-05T06:20:55.159Z,71.40
2019-05-05T06:23:24.772Z,70.10
2019-05-05T06:25:55.519Z,70.50
2019-05-05T06:28:25.029Z,71.10
2019-05-05T06:30:54.775Z,70.20
2019-05-05T06:33:24.377Z,69.80
2019-05-05T06:35:55.453Z,70.00
2019-05-05T06:38:26.529Z,70.90
2019-05-05T06:41:04.215Z,71.60
2019-05-05T06:43:51.955Z,73.10
2019-05-05T06:46:23.735Z,74.60
2019-05-05T06:48:54.451Z,74.70
2019-05-05T06:51:24.541Z,75.70
2019-05-05T06:53:54.230Z,75.50
2019-05-05T06:56:23.837Z,75.60
2019-05-05T06:58:54.072Z,73.80
2019-05-05T07:01:24.757Z,74.00
2019-05-05T07:03:54.281Z,73.10
2019-05-05T07:06:23.977Z,72.60
2019-05-05T07:08:54.508Z,70.90
2019-05-05T07:11:24.432Z,72.10
2019-05-05T07:13:53.991Z,71.20
2019-05-05T07:16:24.334Z,71.00
2019-05-05T07:18:55.105Z,71.20
2019-05-05T07:21:26.157Z,71.20
2019-05-05T07:23:55.682Z,70.80
2019-05-05T07:26:37.551Z,70.60
2019-05-05T07:29:06.999Z,69.90
2019-05-05T07:31:36.600Z,69.90
2019-05-05T07:34:06.448Z,69.70
2019-05-05T07:36:46.134Z,69.50
2019-05-05T07:39:15.665Z,69.30
2019-05-05T07:41:45.162Z,68.70
2019-05-05T07:44:25.464Z,68.30
2019-05-05T07:46:45.675Z,67.90
2019-05-05T07:49:15.146Z,67.60
2019-05-05T07:51:44.716Z,68.20
2019-05-05T07:54:14.592Z,67.60
2019-05-05T07:57:04.198Z,67.80
2019-05-05T07:59:34.116Z,67.60
2019-05-05T08:02:04.065Z,65.50
2019-05-05T08:04:34.660Z,64.40
2019-05-05T08:07:05.478Z,62.20
2019-05-05T08:09:34.939Z,61.20
2019-05-05T08:12:04.840Z,60.80
2019-05-05T08:14:34.365Z,63.10
2019-05-05T08:17:05.466Z,64.60
2019-05-05T08:19:39.621Z,69.40
2019-05-05T08:22:10.107Z,74.30
2019-05-05T08:24:59.297Z,78.30
2019-05-05T08:27:46.693Z,80.50
2019-05-05T08:30:18.323Z,80.50
2019-05-05T08:32:49.410Z,79.10
2019-05-05T08:35:18.869Z,77.40
2019-05-05T08:37:49.271Z,74.90
2019-05-05T08:40:18.801Z,73.00
2019-05-05T08:42:49.386Z,73.50
2019-05-05T08:45:18.987Z,69.80
2019-05-05T08:47:48.417Z,70.20
2019-05-05T08:50:17.934Z,68.60
2019-05-05T08:52:47.478Z,65.40
2019-05-05T08:55:29.510Z,64.50
2019-05-05T08:57:58.965Z,61.00
2019-05-05T09:00:28.486Z,64.00
2019-05-05T09:02:57.995Z,60.60
2019-05-05T09:05:27.519Z,60.60
2019-05-05T09:07:56.977Z,60.10
2019-05-05T09:10:26.422Z,60.60
2019-05-05T09:12:55.949Z,60.50
2019-05-05T09:15:25.405Z,62.40
2019-05-05T09:17:55.053Z,60.40
2019-05-05T09:20:24.700Z,60.10
2019-05-05T09:22:57.206Z,59.60
2019-05-05T09:25:29.566Z,59.70
2019-05-05T09:28:06.065Z,58.40
2019-05-05T09:30:40.509Z,58.00
2019-05-05T09:33:10.026Z,56.90
2019-05-05T09:35:39.813Z,57.40
2019-05-05T09:38:09.453Z,56.70
2019-05-05T09:40:41.210Z,56.90
2019-05-05T09:43:10.838Z,56.20
2019-05-05T09:45:40.467Z,54.60
2019-05-05T09:48:10.028Z,53.70
2019-05-05T09:50:40.426Z,53.40
2019-05-05T09:53:15.721Z,53.50
2019-05-05T09:55:45.210Z,55.90
2019-05-05T09:58:14.858Z,57.00
2019-05-05T10:00:46.210Z,57.70
2019-05-05T10:03:15.727Z,57.40
2019-05-05T10:05:46.000Z,57.30
2019-05-05T10:08:15.598Z,55.50
2019-05-05T10:10:45.045Z,52.80
2019-05-05T10:13:15.006Z,51.80
2019-05-05T10:15:44.727Z,52.90
2019-05-05T10:18:14.362Z,54.40
2019-05-05T10:20:43.836Z,56.50
2019-05-05T10:23:14.287Z,59.10
2019-05-05T10:25:47.999Z,61.00
2019-05-05T10:28:18.611Z,64.90
2019-05-05T10:30:48.206Z,62.20
2019-05-05T10:33:17.821Z,60.90
2019-05-05T10:35:47.386Z,60.70
2019-05-05T10:38:16.907Z,60.70
2019-05-05T10:40:48.346Z,60.40
2019-05-05T10:43:17.609Z,59.90
2019-05-05T10:45:47.103Z,59.10
2019-05-05T10:48:16.542Z,58.90
2019-05-05T10:50:46.021Z,57.00
2019-05-05T10:53:15.464Z,56.40
2019-05-05T10:55:45.185Z,56.50
2019-05-05T10:58:14.729Z,55.60
2019-05-05T11:00:47.582Z,55.50
2019-05-05T11:03:17.192Z,55.50
2019-05-05T11:05:46.658Z,55.80
2019-05-05T11:08:16.314Z,55.00
2019-05-05T11:10:46.223Z,53.60
2019-05-05T11:13:15.954Z,53.50
2019-05-05T11:15:45.411Z,53.10
2019-05-05T11:18:15.217Z,52.90
2019-05-05T11:20:45.455Z,52.30
2019-05-05T11:23:15.388Z,50.40
2019-05-05T11:25:45.028Z,48.00
2019-05-05T11:28:14.465Z,48.00
2019-05-05T11:30:48.063Z,48.30
2019-05-05T11:33:24.672Z,49.10
2019-05-05T11:36:13.706Z,50.70
2019-05-05T11:38:56.556Z,53.30
2019-05-05T11:41:25.987Z,54.70
2019-05-05T11:44:07.306Z,54.60
2019-05-05T11:46:38.887Z,54.60
2019-05-05T11:49:08.405Z,55.10
2019-05-05T11:51:43.626Z,56.10
2019-05-05T11:54:15.404Z,55.70
2019-05-05T11:56:44.868Z,55.50
2019-05-05T11:59:14.782Z,55.60
2019-05-05T12:01:44.340Z,55.60
2019-05-05T12:04:15.621Z,55.20
2019-05-05T12:06:45.096Z,54.10
2019-05-05T12:09:17.193Z,52.50
2019-05-05T12:11:46.711Z,49.90
2019-05-05T12:14:17.887Z,49.80
2019-05-05T12:16:49.074Z,49.20
2019-05-05T12:19:18.505Z,48.20
2019-05-05T12:21:47.968Z,49.10
2019-05-05T12:24:20.406Z,49.10
2019-05-05T12:26:51.531Z,48.40
2019-05-05T12:29:21.224Z,47.50
2019-05-05T12:31:54.599Z,47.40
2019-05-05T12:34:24.043Z,48.00
2019-05-05T12:36:54.077Z,49.30
2019-05-05T12:39:23.649Z,49.00
2019-05-05T12:41:54.332Z,50.20
2019-05-05T12:44:25.574Z,51.90
2019-05-05T12:47:03.796Z,52.90
2019-05-05T12:49:37.854Z,52.80
2019-05-05T12:52:08.532Z,52.00
2019-05-05T12:54:37.996Z,51.50
2019-05-05T12:57:07.774Z,50.90
2019-05-05T12:59:37.375Z,49.80
2019-05-05T13:02:07.530Z,49.40
2019-05-05T13:04:37.033Z,43.70
2019-05-05T13:07:08.339Z,43.60
2019-05-05T13:09:38.567Z,43.50
2019-05-05T13:12:08.276Z,45.00
2019-05-05T13:14:37.761Z,41.90
2019-05-05T13:17:07.197Z,41.40
2019-05-05T13:19:38.302Z,41.10
2019-05-05T13:22:20.382Z,40.50
2019-05-05T13:24:56.908Z,39.00
2019-05-05T13:27:28.014Z,39.30
2019-05-05T13:29:57.449Z,39.00
2019-05-05T13:32:27.110Z,37.80
2019-05-05T13:34:56.646Z,39.30
2019-05-05T13:37:27.318Z,39.10
2019-05-05T13:39:57.178Z,37.80
2019-05-05T13:42:35.061Z,36.10
2019-05-05T13:45:09.192Z,34.20
2019-05-05T13:47:54.910Z,34.60
2019-05-05T13:50:37.169Z,36.20
2019-05-05T13:53:10.102Z,37.10
2019-05-05T13:55:39.521Z,40.90
2019-05-05T13:58:10.506Z,44.30
2019-05-05T14:00:44.120Z,43.60
2019-05-05T14:03:13.847Z,42.10
2019-05-05T14:05:44.838Z,40.10
2019-05-05T14:08:14.805Z,39.60
2019-05-05T14:10:46.017Z,39.10
2019-05-05T14:13:28.034Z,39.80
2019-05-05T14:15:57.652Z,40.70
2019-05-05T14:18:27.920Z,41.10
2019-05-05T14:20:57.633Z,40.60
2019-05-05T14:23:29.390Z,40.10
2019-05-05T14:25:58.838Z,38.50
2019-05-05T14:28:28.356Z,37.60
2019-05-05T14:31:00.535Z,37.80
2019-05-05T14:33:31.634Z,37.70
2019-05-05T14:36:04.668Z,39.10
2019-05-05T14:38:38.412Z,40.90
2019-05-05T14:41:07.150Z,38.60
2019-05-05T14:43:36.581Z,37.40
2019-05-05T14:46:18.741Z,38.80
2019-05-05T14:48:53.534Z,41.30
2019-05-05T14:51:25.451Z,41.70
2019-05-05T14:53:54.891Z,39.90
2019-05-05T14:56:35.612Z,38.80
2019-05-05T14:58:56.840Z,38.20
2019-05-05T15:01:26.295Z,36.80
2019-05-05T15:03:55.813Z,36.70
2019-05-05T15:06:26.937Z,36.10
2019-05-05T15:08:58.009Z,35.30
2019-05-05T15:11:29.115Z,33.50
2019-05-05T15:13:58.629Z,32.80
2019-05-05T15:16:28.165Z,34.30
2019-05-05T15:18:57.700Z,34.60
2019-05-05T15:21:27.134Z,35.50
2019-05-05T15:23:58.831Z,38.90
2019-05-05T15:26:29.209Z,41.20
2019-05-05T15:29:18.821Z,43.80
2019-05-05T15:31:48.261Z,45.70
2019-05-05T15:34:17.706Z,47.20
2019-05-05T15:36:49.174Z,48.10
2019-05-05T15:39:18.544Z,48.90
2019-05-05T15:41:48.002Z,49.80
2019-05-05T15:44:26.483Z,50.50
2019-05-05T15:46:58.058Z,52.00
2019-05-05T15:49:28.603Z,52.10
2019-05-05T15:52:28.700Z,52.50
2019-05-05T15:57:54.553Z,52.60
2019-05-05T16:00:33.875Z,53.10
2019-05-05T16:03:07.115Z,53.30
2019-05-05T16:05:45.936Z,53.30
2019-05-05T16:08:15.434Z,53.00
2019-05-05T16:10:46.645Z,51.80
2019-05-05T16:13:16.313Z,51.60
2019-05-05T16:15:47.419Z,50.70
2019-05-05T16:18:18.565Z,50.00
2019-05-05T16:20:58.572Z,48.80
2019-05-05T16:23:46.558Z,48.50
2019-05-05T16:26:16.130Z,47.60
2019-05-05T16:28:55.018Z,47.40
2019-05-05T16:31:23.718Z,45.90
2019-05-05T16:33:53.179Z,46.70
2019-05-05T16:36:24.310Z,48.10
2019-05-05T16:38:53.995Z,48.40
2019-05-05T16:41:23.786Z,49.10
2019-05-05T16:43:53.925Z,50.20
2019-05-05T16:46:35.326Z,50.30
2019-05-05T16:49:05.629Z,52.30
2019-05-05T16:51:46.739Z,53.50
2019-05-05T16:54:17.846Z,54.20
2019-05-05T16:56:48.988Z,54.30
2019-05-05T16:59:18.472Z,54.60
2019-05-05T17:01:50.830Z,53.50
2019-05-05T17:04:20.226Z,53.30
2019-05-05T17:06:49.742Z,53.20
2019-05-05T17:09:19.203Z,54.30
2019-05-05T17:12:08.985Z,55.90
2019-05-05T17:14:48.183Z,55.50
2019-05-05T17:17:23.298Z,55.20
2019-05-05T17:20:04.421Z,55.40
2019-05-05T17:22:35.002Z,55.90
2019-05-05T17:25:06.848Z,55.50
2019-05-05T17:27:51.231Z,55.40
2019-05-05T17:30:20.886Z,55.30
2019-05-05T17:32:51.080Z,55.40
2019-05-05T17:35:20.531Z,55.60
2019-05-05T17:37:50.910Z,56.30
2019-05-05T17:40:24.813Z,56.90
2019-05-05T17:43:05.262Z,57.30
2019-05-05T17:45:58.665Z,57.50
2019-05-05T17:48:44.710Z,57.80
2019-05-05T17:51:33.541Z,58.40
2019-05-05T17:54:04.629Z,58.30
2019-05-05T17:56:34.098Z,57.90
2019-05-05T17:59:03.673Z,58.00
2019-05-05T18:01:33.587Z,57.60
2019-05-05T18:04:04.125Z,56.50
2019-05-05T18:06:38.410Z,56.20
2019-05-05T18:09:13.970Z,56.30
2019-05-05T18:11:58.141Z,56.80
2019-05-05T18:14:38.781Z,57.40
2019-05-05T18:17:08.246Z,57.90
2019-05-05T18:19:37.690Z,58.60
2019-05-05T18:22:07.139Z,59.10
2019-05-05T18:24:36.608Z,59.70
2019-05-05T18:27:06.058Z,60.10
2019-05-05T18:29:35.515Z,60.00
2019-05-05T18:32:05.173Z,59.20
2019-05-05T18:34:34.629Z,58.90
2019-05-05T18:37:04.115Z,59.30
2019-05-05T18:39:34.278Z,61.10
2019-05-05T18:42:08.259Z,61.80
2019-05-05T18:44:38.667Z,62.20
2019-05-05T18:47:12.991Z,62.40
2019-05-05T18:49:41.098Z,62.30
2019-05-05T18:52:10.612Z,60.20
2019-05-05T18:54:40.072Z,59.70
2019-05-05T18:57:11.363Z,59.80
2019-05-05T18:59:40.861Z,59.90
2019-05-05T19:02:24.285Z,59.70
2019-05-05T19:05:13.646Z,60.00
2019-05-05T19:07:55.935Z,60.10
2019-05-05T19:10:24.641Z,59.80
2019-05-05T19:12:55.927Z,59.90
2019-05-05T19:15:25.518Z,60.20
2019-05-05T19:17:55.041Z,60.60
2019-05-05T19:20:35.032Z,61.00
2019-05-05T19:23:05.880Z,61.20
2019-05-05T19:25:35.743Z,61.20
2019-05-05T19:28:05.446Z,61.30
2019-05-05T19:30:36.211Z,61.50
2019-05-05T19:33:05.912Z,61.70
2019-05-05T19:35:44.083Z,61.90
2019-05-05T19:38:07.517Z,61.70
2019-05-05T19:40:37.107Z,61.90
2019-05-05T19:43:06.713Z,61.90
2019-05-05T19:45:36.224Z,61.90
2019-05-05T19:48:06.124Z,61.80
2019-05-05T19:50:47.310Z,61.70
2019-05-05T19:53:24.828Z,61.50
2019-05-05T19:55:55.982Z,62.10
2019-05-05T19:58:25.504Z,62.20
2019-05-05T20:00:57.731Z,61.70
2019-05-05T20:03:27.254Z,61.80
2019-05-05T20:05:56.980Z,61.60
2019-05-05T20:08:39.952Z,61.50
2019-05-05T20:10:57.433Z,61.30
2019-05-05T20:13:26.886Z,61.40
2019-05-05T20:16:07.210Z,60.90
2019-05-05T20:18:36.721Z,60.60
2019-05-05T20:21:07.315Z,60.20
2019-05-05T20:23:38.094Z,60.50
2019-05-05T20:26:07.542Z,60.30
2019-05-05T20:28:36.998Z,60.00
2019-05-05T20:31:06.538Z,60.10
2019-05-05T20:33:43.570Z,60.50
2019-05-05T20:36:34.633Z,60.80
2019-05-05T20:39:06.231Z,60.50
2019-05-05T20:41:36.703Z,60.70
2019-05-05T20:44:06.167Z,60.70
2019-05-05T20:46:35.598Z,61.00
2019-05-05T20:49:05.072Z,61.20
2019-05-05T20:51:34.503Z,62.30
2019-05-05T20:54:04.740Z,62.20
2019-05-05T20:56:34.661Z,62.40
2019-05-05T20:59:04.454Z,62.80
2019-05-05T21:01:34.151Z,62.80
2019-05-05T21:04:04.750Z,62.80
2019-05-05T21:06:34.455Z,63.30
2019-05-05T21:09:05.687Z,63.70
2019-05-05T21:11:35.567Z,63.90
2019-05-05T21:14:05.144Z,64.30
2019-05-05T21:16:34.662Z,64.50
2019-05-05T21:19:04.703Z,65.70
2019-05-05T21:21:36.266Z,65.20
2019-05-05T21:24:06.188Z,65.40
2019-05-05T21:26:55.854Z,65.90
2019-05-05T21:29:37.695Z,66.20
2019-05-05T21:31:56.511Z,66.70
2019-05-05T21:34:25.964Z,66.90
2019-05-05T21:36:55.486Z,67.10
2019-05-05T21:39:28.242Z,67.20
2019-05-05T21:41:57.703Z,67.30
2019-05-05T21:44:27.211Z,67.60
2019-05-05T21:46:59.318Z,67.80
2019-05-05T21:49:28.911Z,68.20
2019-05-05T21:52:09.100Z,68.20
2019-05-05T21:54:45.755Z,68.00
2019-05-05T21:57:31.805Z,67.80
2019-05-05T22:00:01.250Z,68.10
2019-05-05T22:02:34.407Z,67.80
2019-05-05T22:05:05.251Z,67.50
2019-05-05T22:07:35.107Z,67.40
2019-05-05T22:10:24.441Z,67.70
2019-05-05T22:12:54.272Z,67.60
2019-05-05T22:15:23.825Z,67.70
2019-05-05T22:17:54.271Z,68.10
2019-05-05T22:20:31.669Z,68.00
2019-05-05T22:23:03.847Z,68.20
2019-05-05T22:25:34.856Z,68.90
2019-05-05T22:28:05.681Z,69.50
2019-05-05T22:30:38.672Z,69.70
2019-05-05T22:33:08.126Z,69.90
2019-05-05T22:35:37.758Z,69.90
2019-05-05T22:38:08.731Z,69.80
2019-05-05T22:40:39.545Z,70.10
2019-05-05T22:43:09.000Z,70.20
2019-05-05T22:45:38.506Z,70.20
2019-05-05T22:48:08.026Z,70.50
2019-05-05T22:50:40.981Z,70.80
2019-05-05T22:53:10.507Z,70.90
2019-05-05T22:55:43.903Z,71.00
2019-05-05T22:58:15.027Z,71.00
2019-05-05T23:00:44.759Z,71.20
2019-05-05T23:03:18.444Z,71.30
2019-05-05T23:06:01.544Z,71.60
2019-05-05T23:08:32.275Z,71.70
2019-05-05T23:11:03.886Z,71.70
2019-05-05T23:13:33.720Z,71.90
2019-05-05T23:16:23.768Z,72.30
2019-05-05T23:18:54.738Z,72.90
2019-05-05T23:21:28.414Z,73.20
2019-05-05T23:24:14.211Z,73.40
2019-05-05T23:26:44.637Z,73.50
2019-05-05T23:29:15.648Z,73.50
2019-05-05T23:31:45.085Z,73.70
2019-05-05T23:34:19.401Z,73.70
2019-05-05T23:36:53.616Z,74.10
2019-05-05T23:39:24.802Z,73.90
2019-05-05T23:41:54.770Z,73.90
2019-05-05T23:44:24.368Z,74.00
2019-05-05T23:46:53.949Z,73.90
2019-05-05T23:49:24.166Z,73.90
2019-05-05T23:51:55.640Z,74.00
2019-05-05T23:54:25.073Z,74.10
2019-05-05T23:56:54.523Z,74.10
2019-05-05T23:59:24.561Z,74.10
